createdAt,value
2017-07-25T00:02:12.633Z,14.00
2017-07-25T00:04:41.038Z,14.00
2017-07-25T00:07:09.427Z,14.00
2017-07-25T00:09:37.846Z,14.10
2017-07-25T00:12:07.001Z,14.00
2017-07-25T00:14:35.391Z,14.00
2017-07-25T00:17:03.809Z,14.00
2017-07-25T00:19:32.965Z,14.00
2017-07-25T00:22:01.384Z,14.00
2017-07-25T00:24:29.786Z,14.00
2017-07-25T00:26:58.188Z,14.00
2017-07-25T00:29:26.608Z,13.90
2017-07-25T00:31:55.763Z,13.90
2017-07-25T00:34:24.170Z,13.90
2017-07-25T00:36:52.557Z,13.90
2017-07-25T00:39:21.739Z,13.90
2017-07-25T00:41:50.129Z,13.90
2017-07-25T00:44:18.510Z,13.90
2017-07-25T00:46:47.691Z,13.90
2017-07-25T00:49:16.091Z,13.80
2017-07-25T00:51:45.260Z,13.90
2017-07-25T00:54:13.672Z,13.90
2017-07-25T00:56:42.839Z,13.90
2017-07-25T00:59:11.257Z,13.90
2017-07-25T01:01:39.653Z,13.90
2017-07-25T01:04:08.052Z,13.90
2017-07-25T01:06:36.441Z,13.90
2017-07-25T01:09:03.961Z,13.80
2017-07-25T01:11:32.366Z,13.70
2017-07-25T01:14:00.753Z,13.70
2017-07-25T01:16:29.141Z,13.70
2017-07-25T01:18:57.545Z,13.80
2017-07-25T01:21:26.714Z,13.80
2017-07-25T01:23:55.338Z,13.70
2017-07-25T01:26:23.722Z,13.80
2017-07-25T01:28:52.109Z,13.70
2017-07-25T01:31:20.514Z,13.70
2017-07-25T01:33:48.915Z,13.70
2017-07-25T01:36:16.645Z,13.70
2017-07-25T01:38:45.033Z,13.70
2017-07-25T01:41:13.062Z,13.70
2017-07-25T01:43:41.491Z,13.70
2017-07-25T01:46:09.889Z,13.70
2017-07-25T01:48:38.306Z,13.70
2017-07-25T01:51:06.360Z,13.70
2017-07-25T01:53:35.535Z,13.80
2017-07-25T01:56:03.954Z,13.70
2017-07-25T01:58:32.351Z,13.70
2017-07-25T02:01:00.065Z,13.70
2017-07-25T02:03:28.881Z,13.70
2017-07-25T02:05:57.285Z,13.60
2017-07-25T02:08:25.733Z,13.70
2017-07-25T02:10:54.137Z,13.70
2017-07-25T02:13:22.543Z,13.70
2017-07-25T02:15:50.964Z,13.70
2017-07-25T02:18:20.115Z,13.70
2017-07-25T02:20:48.523Z,13.60
2017-07-25T02:23:17.698Z,13.70
2017-07-25T02:25:46.109Z,13.60
2017-07-25T02:28:15.280Z,13.70
2017-07-25T02:30:43.675Z,13.70
2017-07-25T02:33:12.858Z,13.70
2017-07-25T02:35:41.253Z,13.70
2017-07-25T02:38:09.672Z,13.70
2017-07-25T02:40:38.062Z,13.70
2017-07-25T02:43:06.451Z,13.70
2017-07-25T02:45:34.858Z,13.70
2017-07-25T02:48:03.259Z,13.70
2017-07-25T02:50:32.420Z,13.70
2017-07-25T02:53:00.833Z,13.60
2017-07-25T02:55:29.246Z,13.70
2017-07-25T02:57:57.668Z,13.70
2017-07-25T03:00:26.060Z,13.70
2017-07-25T03:02:55.291Z,13.70
2017-07-25T03:05:23.694Z,13.60
2017-07-25T03:07:52.088Z,13.60
2017-07-25T03:10:20.510Z,13.60
2017-07-25T03:12:54.292Z,13.60
2017-07-25T03:15:23.477Z,13.60
2017-07-25T03:17:51.865Z,13.60
2017-07-25T03:20:21.041Z,13.60
2017-07-25T03:22:48.780Z,13.50
2017-07-25T03:25:17.178Z,13.60
2017-07-25T03:27:45.597Z,13.50
2017-07-25T03:30:13.994Z,13.50
2017-07-25T03:32:42.390Z,13.50
2017-07-25T03:35:10.800Z,13.50
2017-07-25T03:37:39.190Z,13.50
2017-07-25T03:40:07.596Z,13.50
2017-07-25T03:42:35.997Z,13.40
2017-07-25T03:45:04.401Z,13.50
2017-07-25T03:47:32.804Z,13.50
2017-07-25T03:50:01.226Z,13.50
2017-07-25T03:52:29.641Z,13.50
2017-07-25T03:54:58.022Z,13.50
2017-07-25T03:57:26.416Z,13.40
2017-07-25T03:59:54.805Z,13.40
2017-07-25T04:02:23.960Z,13.30
2017-07-25T04:04:52.396Z,13.30
2017-07-25T04:07:20.784Z,13.40
2017-07-25T04:09:49.171Z,13.40
2017-07-25T04:12:17.569Z,13.40
2017-07-25T04:14:45.952Z,13.40
2017-07-25T04:17:14.353Z,13.40
2017-07-25T04:19:42.744Z,13.40
2017-07-25T04:22:11.130Z,13.40
2017-07-25T04:24:40.299Z,13.50
2017-07-25T04:27:08.685Z,13.40
2017-07-25T04:29:37.077Z,13.50
2017-07-25T04:32:06.230Z,13.40
2017-07-25T04:34:34.620Z,13.40
2017-07-25T04:37:03.026Z,13.40
2017-07-25T04:39:31.414Z,13.50
2017-07-25T04:42:00.599Z,13.50
2017-07-25T04:44:28.986Z,13.50
2017-07-25T04:46:58.139Z,13.50
2017-07-25T04:49:26.543Z,13.50
2017-07-25T04:51:54.592Z,13.50
2017-07-25T04:54:23.021Z,13.50
2017-07-25T04:56:52.190Z,13.50
2017-07-25T04:59:20.580Z,13.50
2017-07-25T05:01:49.748Z,13.50
2017-07-25T05:04:18.133Z,13.50
2017-07-25T05:06:46.547Z,13.40
2017-07-25T05:09:14.955Z,13.50
2017-07-25T05:11:43.351Z,13.50
2017-07-25T05:14:11.746Z,13.50
2017-07-25T05:16:40.135Z,13.50
2017-07-25T05:19:08.525Z,13.50
2017-07-25T05:21:36.913Z,13.50
2017-07-25T05:24:06.249Z,13.50
2017-07-25T05:26:34.640Z,13.50
2017-07-25T05:29:03.032Z,13.50
2017-07-25T05:31:31.440Z,13.60
2017-07-25T05:34:00.602Z,13.60
2017-07-25T05:36:29.051Z,13.60
2017-07-25T05:38:57.442Z,13.60
2017-07-25T05:41:25.830Z,13.50
2017-07-25T05:43:54.262Z,13.50
2017-07-25T05:46:23.421Z,13.50
2017-07-25T05:48:51.824Z,13.50
2017-07-25T05:51:20.976Z,13.60
2017-07-25T05:53:49.376Z,13.60
2017-07-25T05:56:17.771Z,13.60
2017-07-25T05:58:46.162Z,13.60
2017-07-25T06:01:15.360Z,13.70
2017-07-25T06:03:44.514Z,13.60
2017-07-25T06:06:12.913Z,13.60
2017-07-25T06:08:41.324Z,13.60
2017-07-25T06:11:09.714Z,13.70
2017-07-25T06:13:38.134Z,13.70
2017-07-25T06:16:06.522Z,13.70
2017-07-25T06:18:34.894Z,13.60
2017-07-25T06:21:03.301Z,13.70
2017-07-25T06:23:32.470Z,13.70
2017-07-25T06:26:00.874Z,13.70
2017-07-25T06:28:29.266Z,13.70
2017-07-25T06:30:58.428Z,13.70
2017-07-25T06:33:26.839Z,13.60
2017-07-25T06:35:55.249Z,13.70
2017-07-25T06:38:23.661Z,13.70
2017-07-25T06:40:52.051Z,13.80
2017-07-25T06:43:20.501Z,13.80
2017-07-25T06:45:48.904Z,13.80
2017-07-25T06:48:17.295Z,13.80
2017-07-25T06:50:46.493Z,13.80
2017-07-25T06:53:14.887Z,13.80
2017-07-25T06:55:44.053Z,13.80
2017-07-25T06:58:12.457Z,13.80
2017-07-25T07:00:40.860Z,13.90
2017-07-25T07:03:09.286Z,13.90
2017-07-25T07:05:37.692Z,13.90
2017-07-25T07:08:06.853Z,14.10
2017-07-25T07:10:35.261Z,14.10
2017-07-25T07:13:04.444Z,14.30
2017-07-25T07:15:32.872Z,14.30
2017-07-25T07:18:01.266Z,14.40
2017-07-25T07:20:29.688Z,14.50
2017-07-25T07:22:58.865Z,14.40
2017-07-25T07:25:27.255Z,14.50
2017-07-25T07:27:55.690Z,14.40
2017-07-25T07:30:24.083Z,14.50
2017-07-25T07:32:52.468Z,14.50
2017-07-25T07:35:20.876Z,14.60
2017-07-25T07:37:50.034Z,14.50
2017-07-25T07:40:18.436Z,14.50
2017-07-25T07:42:46.830Z,14.50
2017-07-25T07:45:15.214Z,14.50
2017-07-25T07:47:44.413Z,14.70
2017-07-25T07:50:13.627Z,14.80
2017-07-25T07:52:42.063Z,14.80
2017-07-25T07:55:10.268Z,14.90
2017-07-25T07:57:39.232Z,14.90
2017-07-25T08:00:07.294Z,14.90
2017-07-25T08:02:35.701Z,15.10
2017-07-25T08:05:04.912Z,15.30
2017-07-25T08:07:33.302Z,15.30
2017-07-25T08:10:01.692Z,15.30
2017-07-25T08:12:30.089Z,15.30
2017-07-25T08:14:58.484Z,15.20
2017-07-25T08:17:26.918Z,15.20
2017-07-25T08:19:55.310Z,15.20
2017-07-25T08:22:23.699Z,15.20
2017-07-25T08:24:52.100Z,15.30
2017-07-25T08:27:21.300Z,15.20
2017-07-25T08:29:49.707Z,15.20
2017-07-25T08:32:18.843Z,15.40
2017-07-25T08:34:47.218Z,15.30
2017-07-25T08:37:15.609Z,15.50
2017-07-25T08:39:43.995Z,15.50
2017-07-25T08:42:12.414Z,15.50
2017-07-25T08:44:41.582Z,15.60
2017-07-25T08:47:09.960Z,15.60
2017-07-25T08:49:38.366Z,15.60
2017-07-25T08:52:07.520Z,15.70
2017-07-25T08:54:35.937Z,15.70
2017-07-25T08:57:05.091Z,15.90
2017-07-25T08:59:33.482Z,15.80
2017-07-25T09:02:01.885Z,15.50
2017-07-25T09:04:30.274Z,15.30
2017-07-25T09:06:59.443Z,14.70
2017-07-25T09:09:27.638Z,14.70
2017-07-25T09:11:56.812Z,14.90
2017-07-25T09:14:25.213Z,14.90
2017-07-25T09:16:54.366Z,15.20
2017-07-25T09:19:22.780Z,15.10
2017-07-25T09:21:51.221Z,15.20
2017-07-25T09:24:19.671Z,15.30
2017-07-25T09:26:48.059Z,15.40
2017-07-25T09:29:16.453Z,15.40
2017-07-25T09:31:44.869Z,15.40
2017-07-25T09:34:13.245Z,15.50
2017-07-25T09:36:41.632Z,15.50
2017-07-25T09:39:10.802Z,15.70
2017-07-25T09:41:39.190Z,15.70
2017-07-25T09:44:07.648Z,15.70
2017-07-25T09:46:36.031Z,15.80
2017-07-25T09:49:04.418Z,15.80
2017-07-25T09:51:32.838Z,16.00
2017-07-25T09:54:01.295Z,16.20
2017-07-25T09:56:29.703Z,16.20
2017-07-25T09:58:58.093Z,16.30
2017-07-25T10:01:26.492Z,16.30
2017-07-25T10:03:55.403Z,16.30
2017-07-25T10:06:24.328Z,16.30
2017-07-25T10:08:52.778Z,16.30
2017-07-25T10:11:21.196Z,16.40
2017-07-25T10:13:50.409Z,16.80
2017-07-25T10:16:19.024Z,16.80
2017-07-25T10:18:47.415Z,16.90
2017-07-25T10:21:15.833Z,17.10
2017-07-25T10:23:45.000Z,17.40
2017-07-25T10:26:13.545Z,17.40
2017-07-25T10:28:42.050Z,17.40
2017-07-25T10:31:10.465Z,17.20
2017-07-25T10:33:39.888Z,17.00
2017-07-25T10:36:08.083Z,17.00
2017-07-25T10:38:36.495Z,17.00
2017-07-25T10:41:04.907Z,17.10
2017-07-25T10:43:33.303Z,17.40
2017-07-25T10:46:01.721Z,17.80
2017-07-25T10:48:30.126Z,18.10
2017-07-25T10:50:59.364Z,17.80
2017-07-25T10:53:28.166Z,17.70
2017-07-25T10:55:57.462Z,15.10
2017-07-25T10:58:25.921Z,15.10
2017-07-25T11:00:54.309Z,14.50
2017-07-25T11:03:22.739Z,14.40
2017-07-25T11:05:51.148Z,14.40
2017-07-25T11:08:19.551Z,14.40
2017-07-25T11:10:47.984Z,14.50
2017-07-25T11:13:17.140Z,14.70
2017-07-25T11:15:45.593Z,14.70
2017-07-25T11:18:14.698Z,14.80
2017-07-25T11:20:43.086Z,14.90
2017-07-25T11:23:11.565Z,15.10
2017-07-25T11:25:39.983Z,15.30
2017-07-25T11:28:09.192Z,15.60
2017-07-25T11:30:38.366Z,15.80
2017-07-25T11:33:06.818Z,15.80
2017-07-25T11:35:35.235Z,16.10
2017-07-25T11:38:03.622Z,16.20
2017-07-25T11:40:32.832Z,16.70
2017-07-25T11:43:02.024Z,17.10
2017-07-25T11:45:31.209Z,17.30
2017-07-25T11:47:59.641Z,17.30
2017-07-25T11:50:28.031Z,17.40
2017-07-25T11:52:56.514Z,17.30
2017-07-25T11:55:24.734Z,17.30
2017-07-25T11:57:53.889Z,17.10
2017-07-25T12:00:22.098Z,17.10
2017-07-25T12:02:51.250Z,17.10
2017-07-25T12:05:19.641Z,17.10
2017-07-25T12:07:48.028Z,17.20
2017-07-25T12:10:16.417Z,17.10
2017-07-25T12:12:44.822Z,17.20
2017-07-25T12:15:13.196Z,16.90
2017-07-25T12:17:41.600Z,16.80
2017-07-25T12:20:10.034Z,16.80
2017-07-25T12:22:39.202Z,16.70
2017-07-25T12:25:07.608Z,16.70
2017-07-25T12:27:35.996Z,16.40
2017-07-25T12:30:05.181Z,15.60
2017-07-25T12:32:33.587Z,15.50
2017-07-25T12:35:01.979Z,15.30
2017-07-25T12:37:30.392Z,15.30
2017-07-25T12:39:58.807Z,15.40
2017-07-25T12:42:28.030Z,15.50
2017-07-25T12:44:56.433Z,15.50
2017-07-25T12:47:24.835Z,15.60
2017-07-25T12:49:53.244Z,15.70
2017-07-25T12:52:22.477Z,15.90
2017-07-25T12:54:50.891Z,15.80
2017-07-25T12:57:19.277Z,15.90
2017-07-25T12:59:47.681Z,16.00
2017-07-25T13:02:28.146Z,16.20
2017-07-25T13:04:56.694Z,16.10
2017-07-25T13:07:25.108Z,16.20
2017-07-25T13:09:54.258Z,16.20
2017-07-25T13:12:22.679Z,16.20
2017-07-25T13:14:51.125Z,16.20
2017-07-25T13:17:19.561Z,16.20
2017-07-25T13:19:47.985Z,16.20
2017-07-25T13:22:16.563Z,16.30
2017-07-25T13:24:50.287Z,16.40
2017-07-25T13:27:18.769Z,16.40
2017-07-25T13:29:47.835Z,16.40
2017-07-25T13:32:16.258Z,16.50
2017-07-25T13:34:44.508Z,16.70
2017-07-25T13:37:12.917Z,16.80
2017-07-25T13:39:41.304Z,16.80
2017-07-25T13:42:09.722Z,16.90
2017-07-25T13:44:38.126Z,17.10
2017-07-25T13:47:07.318Z,17.40
2017-07-25T13:49:35.719Z,17.40
2017-07-25T13:52:04.106Z,17.40
2017-07-25T13:54:32.504Z,17.50
2017-07-25T13:57:00.907Z,17.50
2017-07-25T13:59:29.296Z,17.50
2017-07-25T14:01:57.838Z,17.40
2017-07-25T14:04:26.224Z,17.40
2017-07-25T14:06:54.614Z,17.40
2017-07-25T14:09:23.018Z,17.20
2017-07-25T14:11:51.418Z,17.10
2017-07-25T14:14:20.609Z,17.00
2017-07-25T14:16:49.787Z,17.10
2017-07-25T14:19:18.171Z,17.00
2017-07-25T14:21:46.571Z,17.20
2017-07-25T14:24:15.741Z,17.20
2017-07-25T14:26:44.145Z,17.20
2017-07-25T14:29:13.334Z,17.40
2017-07-25T14:31:42.500Z,17.50
2017-07-25T14:34:10.889Z,17.50
2017-07-25T14:36:39.320Z,17.60
2017-07-25T14:39:07.844Z,17.60
2017-07-25T14:41:36.239Z,17.60
2017-07-25T14:44:04.622Z,17.60
2017-07-25T14:46:33.842Z,17.60
2017-07-25T14:49:02.997Z,17.70
2017-07-25T14:51:31.418Z,17.70
2017-07-25T14:53:59.864Z,17.90
2017-07-25T14:56:28.316Z,17.90
2017-07-25T14:58:57.872Z,17.90
2017-07-25T15:01:27.158Z,17.90
2017-07-25T15:03:55.667Z,17.90
2017-07-25T15:06:24.076Z,17.90
2017-07-25T15:08:52.470Z,17.90
2017-07-25T15:11:20.873Z,17.80
2017-07-25T15:13:49.271Z,17.90
2017-07-25T15:16:17.714Z,17.80
2017-07-25T15:18:46.906Z,17.60
2017-07-25T15:21:15.629Z,17.60
2017-07-25T15:23:44.839Z,17.80
2017-07-25T15:26:13.239Z,17.70
2017-07-25T15:28:41.655Z,17.60
2017-07-25T15:31:10.097Z,17.50
2017-07-25T15:33:38.510Z,17.50
2017-07-25T15:36:06.927Z,17.40
2017-07-25T15:38:36.077Z,17.50
2017-07-25T15:41:04.490Z,17.50
2017-07-25T15:43:33.747Z,17.40
2017-07-25T15:46:02.180Z,17.40
2017-07-25T15:48:30.597Z,17.30
2017-07-25T15:50:58.990Z,17.00
2017-07-25T15:53:27.392Z,16.80
2017-07-25T15:55:55.814Z,16.60
2017-07-25T15:58:24.231Z,16.30
2017-07-25T16:00:52.646Z,16.10
2017-07-25T16:03:21.821Z,16.00
2017-07-25T16:05:50.224Z,16.00
2017-07-25T16:08:18.617Z,16.00
2017-07-25T16:10:47.030Z,15.90
2017-07-25T16:13:15.437Z,15.90
2017-07-25T16:15:44.707Z,15.70
2017-07-25T16:18:13.132Z,15.70
2017-07-25T16:20:42.281Z,15.60
2017-07-25T16:23:10.676Z,15.50
2017-07-25T16:25:39.091Z,15.60
2017-07-25T16:28:07.486Z,15.60
2017-07-25T16:30:37.346Z,15.40
2017-07-25T16:33:05.751Z,15.40
2017-07-25T16:35:34.938Z,15.30
2017-07-25T16:38:03.369Z,15.30
2017-07-25T16:40:31.757Z,15.20
2017-07-25T16:43:00.171Z,15.20
2017-07-25T16:45:29.331Z,15.10
2017-07-25T16:47:57.722Z,15.10
2017-07-25T16:50:26.142Z,15.10
2017-07-25T16:52:54.531Z,15.10
2017-07-25T16:55:22.949Z,15.00
2017-07-25T16:57:51.348Z,15.00
2017-07-25T17:00:19.408Z,15.10
2017-07-25T17:02:47.819Z,15.10
2017-07-25T17:05:16.990Z,15.10
2017-07-25T17:07:45.389Z,15.10
2017-07-25T17:10:14.546Z,15.20
2017-07-25T17:12:43.039Z,15.20
2017-07-25T17:15:11.460Z,15.20
2017-07-25T17:17:40.613Z,15.10
2017-07-25T17:20:09.033Z,15.10
2017-07-25T17:22:38.203Z,15.10
2017-07-25T17:25:06.842Z,15.10
2017-07-25T17:27:35.254Z,15.10
2017-07-25T17:30:03.654Z,15.10
2017-07-25T17:32:32.873Z,15.00
2017-07-25T17:35:01.260Z,15.00
2017-07-25T17:37:29.649Z,15.00
2017-07-25T17:39:58.052Z,15.00
2017-07-25T17:42:26.438Z,15.00
2017-07-25T17:44:55.629Z,15.00
2017-07-25T17:47:24.017Z,15.00
2017-07-25T17:49:52.434Z,15.00
2017-07-25T17:52:21.590Z,14.90
2017-07-25T17:54:49.988Z,14.90
2017-07-25T17:57:18.407Z,14.90
2017-07-25T17:59:46.788Z,14.90
2017-07-25T18:02:15.206Z,14.90
2017-07-25T18:04:43.594Z,14.80
2017-07-25T18:07:11.969Z,14.80
2017-07-25T18:09:40.361Z,14.80
2017-07-25T18:12:08.403Z,14.70
2017-07-25T18:14:36.643Z,14.70
2017-07-25T18:17:04.687Z,14.60
2017-07-25T18:19:33.843Z,14.60
2017-07-25T18:22:02.247Z,14.60
2017-07-25T18:24:32.286Z,14.60
2017-07-25T18:27:01.473Z,14.40
2017-07-25T18:29:30.626Z,14.40
2017-07-25T18:31:59.016Z,14.30
2017-07-25T18:34:27.428Z,14.30
2017-07-25T18:36:56.589Z,14.30
2017-07-25T18:39:25.006Z,14.20
2017-07-25T18:41:54.160Z,14.20
2017-07-25T18:44:22.356Z,14.20
2017-07-25T18:46:50.778Z,14.10
2017-07-25T18:49:19.166Z,14.10
2017-07-25T18:51:47.593Z,14.10
2017-07-25T18:54:16.002Z,14.20
2017-07-25T18:56:44.390Z,14.20
2017-07-25T18:59:12.797Z,14.10
2017-07-25T19:01:41.188Z,14.10
2017-07-25T19:04:09.620Z,14.10
2017-07-25T19:06:38.020Z,14.10
2017-07-25T19:09:06.417Z,14.10
2017-07-25T19:11:34.830Z,14.10
2017-07-25T19:14:03.233Z,14.10
2017-07-25T19:16:31.651Z,14.10
2017-07-25T19:19:00.058Z,14.10
2017-07-25T19:21:28.455Z,14.00
2017-07-25T19:23:57.633Z,14.00
2017-07-25T19:26:26.025Z,14.00
2017-07-25T19:28:55.225Z,14.10
2017-07-25T19:31:24.393Z,14.00
2017-07-25T19:33:52.615Z,14.00
2017-07-25T19:36:21.049Z,14.00
2017-07-25T19:38:49.454Z,14.00
2017-07-25T19:41:18.627Z,14.10
2017-07-25T19:43:47.014Z,14.10
2017-07-25T19:46:15.403Z,14.10
2017-07-25T19:48:44.706Z,14.10
2017-07-25T19:51:13.874Z,14.10
2017-07-25T19:53:42.970Z,14.00
2017-07-25T19:56:11.375Z,14.00
2017-07-25T19:58:40.548Z,14.00
2017-07-25T20:01:08.964Z,14.00
2017-07-25T20:03:37.383Z,14.00
2017-07-25T20:06:05.825Z,14.00
2017-07-25T20:08:34.221Z,14.00
2017-07-25T20:11:02.610Z,14.00
2017-07-25T20:13:31.018Z,14.00
2017-07-25T20:15:59.416Z,14.00
2017-07-25T20:18:28.603Z,14.00
2017-07-25T20:20:56.991Z,14.00
2017-07-25T20:23:26.175Z,14.00
2017-07-25T20:25:54.627Z,14.00
2017-07-25T20:28:23.029Z,14.00
2017-07-25T20:30:51.418Z,14.00
2017-07-25T20:33:19.808Z,14.00
2017-07-25T20:35:49.221Z,14.00
2017-07-25T20:38:17.615Z,14.00
2017-07-25T20:40:46.094Z,14.00
2017-07-25T20:43:14.506Z,14.00
2017-07-25T20:45:42.895Z,14.10
2017-07-25T20:48:11.518Z,14.10
2017-07-25T20:50:39.943Z,14.10
2017-07-25T20:53:08.337Z,14.10
2017-07-25T20:55:36.746Z,14.10
2017-07-25T20:58:05.210Z,14.10
2017-07-25T21:00:33.799Z,14.10
2017-07-25T21:03:02.958Z,14.10
2017-07-25T21:05:31.346Z,14.10
2017-07-25T21:07:59.847Z,14.10
2017-07-25T21:10:29.022Z,14.10
2017-07-25T21:12:57.878Z,14.10
2017-07-25T21:15:26.282Z,14.10
2017-07-25T21:17:54.684Z,14.20
2017-07-25T21:20:23.102Z,14.10
2017-07-25T21:22:51.497Z,14.10
2017-07-25T21:25:20.408Z,14.20
2017-07-25T21:27:48.811Z,14.10
2017-07-25T21:30:17.218Z,14.10
2017-07-25T21:32:46.415Z,14.20
2017-07-25T21:35:15.571Z,14.20
2017-07-25T21:37:44.124Z,14.20
2017-07-25T21:40:12.528Z,14.20
2017-07-25T21:42:40.902Z,14.20
2017-07-25T21:45:09.307Z,14.20
2017-07-25T21:47:38.474Z,14.20
2017-07-25T21:50:06.872Z,14.20
2017-07-25T21:52:35.264Z,14.10
2017-07-25T21:55:04.436Z,14.20
2017-07-25T21:57:32.841Z,14.20
2017-07-25T22:00:01.234Z,14.10
2017-07-25T22:02:41.396Z,14.10
2017-07-25T22:05:09.773Z,14.20
2017-07-25T22:07:38.189Z,14.20
2017-07-25T22:10:06.579Z,14.20
2017-07-25T22:12:35.010Z,14.20
2017-07-25T22:15:03.413Z,14.20
2017-07-25T22:17:31.803Z,14.10
2017-07-25T22:20:00.192Z,14.20
2017-07-25T22:22:28.583Z,14.20
2017-07-25T22:24:57.915Z,14.10
2017-07-25T22:27:27.069Z,14.10
2017-07-25T22:29:55.459Z,14.10
2017-07-25T22:32:23.866Z,14.20
2017-07-25T22:34:52.251Z,14.10
2017-07-25T22:37:21.176Z,14.20
2017-07-25T22:39:49.585Z,14.20
2017-07-25T22:42:17.973Z,14.20
2017-07-25T22:44:46.365Z,14.10
2017-07-25T22:47:15.532Z,14.20
2017-07-25T22:49:44.027Z,14.10
2017-07-25T22:52:12.414Z,14.10
2017-07-25T22:54:41.563Z,14.10
2017-07-25T22:57:09.957Z,14.10
2017-07-25T22:59:38.362Z,14.20
2017-07-25T23:02:07.781Z,14.20
2017-07-25T23:04:36.175Z,14.10
2017-07-25T23:07:04.551Z,14.20
2017-07-25T23:09:32.947Z,14.10
2017-07-25T23:12:01.342Z,14.20
2017-07-25T23:14:29.845Z,14.20
2017-07-25T23:16:58.239Z,14.20
2017-07-25T23:19:27.396Z,14.20
2017-07-25T23:21:55.802Z,14.10
2017-07-25T23:24:24.194Z,14.20
2017-07-25T23:26:53.715Z,14.20
2017-07-25T23:29:22.877Z,14.20
2017-07-25T23:31:51.274Z,14.20
2017-07-25T23:34:20.461Z,14.30
2017-07-25T23:36:49.644Z,14.20
2017-07-25T23:39:18.119Z,14.30
2017-07-25T23:41:46.526Z,14.20
2017-07-25T23:44:15.698Z,14.20
2017-07-25T23:46:44.094Z,14.20
2017-07-25T23:49:12.488Z,14.20
2017-07-25T23:51:40.894Z,14.20
2017-07-25T23:54:09.313Z,14.20
2017-07-25T23:56:37.718Z,14.20
2017-07-25T23:59:06.903Z,14.20
